Time;durP1;ratioP1;P1;durP2;ratioP2;P2;SDS_P1;SDS_P2;PMS_P1;PMS_P2;Temp;Humidity;BMP_temperature;BMP_pressure;BME280_temperature;BME280_humidity;BME280_pressure;Samples;Min_cycle;Max_cycle;Signal;HPM_P1;HPM_P2
2021/06/27 00:01:21;;;;;;;42.53;30.15;;;17.80;99.90;;;;;;5090780;28;20039;-73
2021/06/27 00:03:47;;;;;;;37.95;28.95;;;17.80;99.90;;;;;;5091867;28;20117;-73
2021/06/27 00:06:13;;;;;;;43.30;30.52;;;17.70;99.90;;;;;;5091609;28;20031;-74
2021/06/27 00:08:38;;;;;;;45.47;30.80;;;17.70;99.90;;;;;;5091101;28;20032;-73
2021/06/27 00:11:08;;;;;;;41.80;31.25;;;17.70;99.90;;;;;;5091562;28;20495;-73
2021/06/27 00:13:36;;;;;;;42.80;31.00;;;17.70;99.90;;;;;;5090929;28;20020;-73
2021/06/27 00:16:02;;;;;;;42.58;30.98;;;17.70;99.90;;;;;;5091392;28;20119;-73
2021/06/27 00:18:28;;;;;;;44.38;31.08;;;17.70;99.90;;;;;;5091919;28;20127;-73
2021/06/27 00:21:00;;;;;;;44.20;30.70;;;17.60;99.90;;;;;;5091074;28;20035;-74
2021/06/27 00:23:29;;;;;;;43.10;30.92;;;17.60;99.90;;;;;;5091606;28;20091;-73
2021/06/27 00:25:56;;;;;;;42.78;28.95;;;17.60;99.90;;;;;;5091587;28;20020;-74
2021/06/27 00:28:21;;;;;;;45.35;33.15;;;17.60;99.90;;;;;;5090194;28;20122;-74
2021/06/27 00:30:49;;;;;;;45.45;32.35;;;17.50;99.90;;;;;;5071680;28;20015;-74
2021/06/27 00:33:15;;;;;;;49.60;33.95;;;17.50;99.90;;;;;;5071098;28;20029;-74
2021/06/27 00:35:41;;;;;;;49.75;33.63;;;17.50;99.90;;;;;;5073337;28;20157;-74
2021/06/27 00:38:06;;;;;;;42.47;32.25;;;17.50;99.90;;;;;;5074820;28;20035;-74
2021/06/27 00:40:33;;;;;;;41.38;31.33;;;17.50;99.90;;;;;;5075000;28;20107;-74
2021/06/27 00:42:59;;;;;;;51.38;33.42;;;17.50;99.90;;;;;;5074021;28;20499;-72
2021/06/27 00:45:29;;;;;;;46.00;33.90;;;17.50;99.90;;;;;;5075023;28;20066;-73
2021/06/27 00:47:58;;;;;;;45.60;32.50;;;17.50;99.90;;;;;;5074977;28;20100;-72
2021/06/27 00:50:27;;;;;;;47.53;32.67;;;17.40;99.90;;;;;;5074274;28;20145;-73
2021/06/27 00:52:53;;;;;;;49.08;34.33;;;17.50;99.90;;;;;;5074752;28;20027;-73
2021/06/27 00:55:19;;;;;;;45.97;31.65;;;17.40;99.90;;;;;;5074517;28;20021;-73
2021/06/27 00:57:46;;;;;;;45.97;33.03;;;17.40;99.90;;;;;;5073770;28;20032;-73
2021/06/27 01:00:21;;;;;;;44.50;32.83;;;17.40;99.90;;;;;;5074511;28;20436;-73
2021/06/27 01:02:47;;;;;;;48.75;35.20;;;17.40;99.90;;;;;;5077556;28;20024;-72
2021/06/27 01:05:16;;;;;;;48.22;33.28;;;17.40;99.90;;;;;;5090666;28;20039;-72
2021/06/27 01:07:41;;;;;;;50.78;35.53;;;17.40;99.90;;;;;;5078525;28;20518;-73
2021/06/27 01:10:08;;;;;;;44.00;33.42;;;17.40;99.90;;;;;;5083881;28;20032;-73
2021/06/27 01:12:33;;;;;;;46.42;34.13;;;17.40;99.90;;;;;;5083669;28;20085;-72
2021/06/27 01:15:05;;;;;;;50.75;35.97;;;17.40;99.90;;;;;;5079035;28;20029;-73
2021/06/27 01:17:30;;;;;;;50.80;34.28;;;17.40;99.90;;;;;;5073487;28;20060;-73
2021/06/27 01:19:56;;;;;;;46.78;34.00;;;17.40;99.90;;;;;;5074520;28;20059;-73
2021/06/27 01:22:24;;;;;;;47.03;34.53;;;17.50;99.90;;;;;;5088034;28;20028;-73
2021/06/27 01:24:50;;;;;;;47.03;35.50;;;17.50;99.90;;;;;;5073790;28;20145;-73
2021/06/27 01:27:15;;;;;;;45.92;33.50;;;17.50;99.90;;;;;;5074016;28;20054;-73
2021/06/27 01:29:41;;;;;;;42.55;33.85;;;17.40;99.90;;;;;;5074369;28;20020;-73
2021/06/27 01:32:10;;;;;;;45.03;33.80;;;17.50;99.90;;;;;;5074943;28;20028;-72
2021/06/27 01:34:38;;;;;;;45.95;33.13;;;17.40;99.90;;;;;;5086139;28;20024;-73
2021/06/27 01:37:05;;;;;;;42.53;31.55;;;17.40;99.90;;;;;;5073345;28;20048;-73
2021/06/27 01:39:31;;;;;;;40.75;32.33;;;17.40;99.90;;;;;;5073589;28;20025;-73
2021/06/27 01:41:56;;;;;;;45.08;32.42;;;17.40;99.90;;;;;;5073993;28;20440;-72
2021/06/27 01:44:22;;;;;;;48.55;35.05;;;17.40;99.90;;;;;;5073594;28;20024;-72
2021/06/27 01:46:47;;;;;;;47.03;34.03;;;17.40;99.90;;;;;;5072807;28;20024;-73
2021/06/27 01:49:14;;;;;;;40.38;31.20;;;17.40;99.90;;;;;;5073105;28;20083;-72
2021/06/27 01:51:40;;;;;;;48.42;33.70;;;17.30;99.90;;;;;;5081970;28;20025;-72
2021/06/27 01:54:07;;;;;;;45.88;33.08;;;17.30;99.90;;;;;;5092889;28;20035;-72
2021/06/27 01:56:36;;;;;;;42.38;30.42;;;17.30;99.90;;;;;;5073651;28;20033;-74
2021/06/27 01:59:04;;;;;;;49.30;33.47;;;17.30;99.90;;;;;;5072526;28;20031;-73
2021/06/27 02:01:39;;;;;;;45.92;33.15;;;17.30;99.90;;;;;;5073462;28;20396;-73
2021/06/27 02:04:06;;;;;;;50.65;34.63;;;17.30;99.90;;;;;;5073276;28;20050;-74
2021/06/27 02:06:37;;;;;;;42.53;32.50;;;17.30;99.90;;;;;;5072808;28;20028;-74
2021/06/27 02:09:10;;;;;;;38.67;32.58;;;17.30;99.90;;;;;;5073153;28;20107;-73
2021/06/27 02:11:36;;;;;;;42.70;32.17;;;17.30;99.90;;;;;;5076481;28;20020;-73
2021/06/27 02:14:03;;;;;;;44.78;32.65;;;17.30;99.90;;;;;;5083167;28;20027;-73
2021/06/27 02:16:29;;;;;;;43.40;32.88;;;17.40;99.90;;;;;;5073069;28;20036;-72
2021/06/27 02:18:55;;;;;;;45.92;31.73;;;17.40;99.90;;;;;;5072960;28;20078;-73
2021/06/27 02:21:30;;;;;;;43.45;32.75;;;17.40;99.90;;;;;;5072241;28;20059;-72
2021/06/27 02:23:56;;;;;;;46.33;33.33;;;17.50;99.90;;;;;;5073110;28;20419;-73
2021/06/27 02:26:23;;;;;;;42.15;31.63;;;17.50;99.90;;;;;;5072703;28;20074;-73
2021/06/27 02:28:50;;;;;;;44.03;30.67;;;17.50;99.90;;;;;;5072248;28;20099;-73
2021/06/27 02:31:16;;;;;;;42.80;33.38;;;17.50;99.90;;;;;;5072750;28;20035;-72
2021/06/27 02:33:43;;;;;;;41.58;32.28;;;17.60;99.90;;;;;;5072578;28;20024;-73
2021/06/27 02:36:09;;;;;;;41.55;32.13;;;17.60;99.90;;;;;;5071891;28;20075;-73
2021/06/27 02:38:35;;;;;;;40.55;31.25;;;17.50;99.90;;;;;;5072548;28;20020;-73
2021/06/27 02:41:01;;;;;;;43.75;33.72;;;17.60;99.90;;;;;;5072218;28;20146;-73
2021/06/27 02:43:27;;;;;;;44.17;32.47;;;17.60;99.90;;;;;;5072812;28;20104;-73
2021/06/27 02:45:53;;;;;;;41.67;32.17;;;17.60;99.90;;;;;;5078321;28;20130;-73
2021/06/27 02:48:20;;;;;;;45.53;33.63;;;17.50;99.90;;;;;;5091906;28;20024;-72
2021/06/27 02:50:45;;;;;;;43.08;33.35;;;17.50;99.90;;;;;;5074822;28;20044;-72
2021/06/27 02:53:12;;;;;;;42.55;33.78;;;17.50;99.90;;;;;;5072312;28;20169;-73
2021/06/27 02:55:37;;;;;;;41.20;31.63;;;17.50;99.90;;;;;;5071569;28;20024;-73
2021/06/27 02:58:03;;;;;;;45.03;33.97;;;17.40;99.90;;;;;;5071274;28;20035;-72
2021/06/27 03:00:29;;;;;;;44.25;35.70;;;17.50;99.90;;;;;;5072154;28;20060;-73
2021/06/27 03:02:56;;;;;;;45.75;33.67;;;17.40;99.90;;;;;;5071711;28;20023;-74
2021/06/27 03:05:24;;;;;;;54.28;36.92;;;17.40;99.90;;;;;;5072195;28;20028;-74
2021/06/27 03:07:50;;;;;;;46.63;33.78;;;17.40;99.90;;;;;;5072086;28;20020;-71
2021/06/27 03:10:18;;;;;;;48.55;34.50;;;17.40;99.90;;;;;;5071193;28;20035;-72
2021/06/27 03:12:46;;;;;;;46.92;33.78;;;17.40;99.90;;;;;;5084601;28;20058;-73
2021/06/27 03:15:13;;;;;;;45.70;33.13;;;17.40;99.90;;;;;;5072641;28;20478;-73
2021/06/27 03:17:40;;;;;;;43.20;33.28;;;17.40;99.90;;;;;;5071498;28;20094;-73
2021/06/27 03:20:08;;;;;;;44.85;35.05;;;17.40;99.90;;;;;;5074755;28;20422;-73
2021/06/27 03:22:34;;;;;;;45.50;33.20;;;17.40;99.90;;;;;;5092255;28;20034;-73
2021/06/27 03:24:59;;;;;;;46.90;35.67;;;17.40;99.90;;;;;;5090959;28;20020;-73
2021/06/27 03:27:30;;;;;;;44.35;34.45;;;17.40;99.90;;;;;;5092452;28;20469;-73
2021/06/27 03:29:55;;;;;;;43.83;33.90;;;17.50;99.90;;;;;;5092382;28;20047;-73
2021/06/27 03:32:21;;;;;;;48.47;35.63;;;17.50;99.90;;;;;;5091359;28;20500;-73
2021/06/27 03:34:47;;;;;;;45.70;35.13;;;17.50;99.90;;;;;;5092149;28;20049;-73
2021/06/27 03:37:12;;;;;;;48.50;36.53;;;17.50;99.90;;;;;;5091386;28;20044;-73
2021/06/27 03:39:38;;;;;;;49.95;36.08;;;17.50;99.90;;;;;;5091324;28;20028;-73
2021/06/27 03:42:04;;;;;;;51.38;35.58;;;17.50;99.90;;;;;;5089524;28;20102;-74
2021/06/27 03:44:30;;;;;;;49.13;35.50;;;17.50;99.90;;;;;;5079196;28;20020;-73
2021/06/27 03:46:56;;;;;;;43.80;33.05;;;17.50;99.90;;;;;;5091898;28;20086;-72
2021/06/27 03:49:22;;;;;;;50.00;36.20;;;17.60;99.90;;;;;;5091676;28;20020;-73
2021/06/27 03:51:48;;;;;;;46.95;34.60;;;17.60;99.90;;;;;;5091497;28;20025;-73
2021/06/27 03:54:15;;;;;;;51.85;33.97;;;17.60;99.90;;;;;;5091525;28;20024;-73
2021/06/27 03:56:41;;;;;;;47.78;35.22;;;17.60;99.90;;;;;;5090768;28;20095;-73
2021/06/27 03:59:07;;;;;;;49.58;37.10;;;17.60;99.90;;;;;;5090669;28;20024;-72
2021/06/27 04:01:33;;;;;;;48.45;34.63;;;17.60;99.90;;;;;;5091837;28;20028;-73
2021/06/27 04:04:00;;;;;;;50.33;37.03;;;17.60;99.90;;;;;;5091228;28;20029;-73
2021/06/27 04:06:25;;;;;;;53.47;38.22;;;17.60;99.90;;;;;;5091081;28;20035;-73
2021/06/27 04:08:51;;;;;;;50.03;37.47;;;17.70;99.90;;;;;;5093199;28;20476;-72
2021/06/27 04:11:16;;;;;;;52.47;36.28;;;17.70;99.90;;;;;;5094702;28;20051;-73
2021/06/27 04:13:42;;;;;;;47.00;35.03;;;17.80;99.90;;;;;;5074979;28;20464;-73
2021/06/27 04:16:08;;;;;;;51.55;37.67;;;17.90;99.90;;;;;;5075278;28;20059;-73
2021/06/27 04:18:35;;;;;;;49.25;35.42;;;17.90;99.90;;;;;;5075318;28;20017;-73
2021/06/27 04:21:01;;;;;;;51.38;36.70;;;18.00;99.90;;;;;;5074490;28;20455;-73
2021/06/27 04:23:29;;;;;;;55.45;38.67;;;18.10;99.90;;;;;;5075122;28;20107;-73
2021/06/27 04:25:55;;;;;;;44.13;35.55;;;18.10;99.90;;;;;;5075261;28;20027;-73
2021/06/27 04:28:20;;;;;;;52.95;36.88;;;18.10;99.90;;;;;;5074010;28;20025;-74
2021/06/27 04:30:46;;;;;;;49.28;36.17;;;18.10;99.90;;;;;;5075416;28;20090;-74
2021/06/27 04:33:11;;;;;;;48.72;37.55;;;18.10;99.90;;;;;;5075038;28;20025;-74
2021/06/27 04:35:39;;;;;;;51.50;37.60;;;18.20;99.90;;;;;;5074038;28;20123;-74
2021/06/27 04:38:07;;;;;;;45.78;35.35;;;18.20;99.90;;;;;;5074737;28;20104;-72
2021/06/27 04:40:33;;;;;;;52.72;38.10;;;18.30;99.90;;;;;;5074928;28;20020;-72
2021/06/27 04:42:59;;;;;;;49.92;37.22;;;18.40;99.90;;;;;;5074344;28;20025;-72
2021/06/27 04:45:25;;;;;;;51.63;35.92;;;18.50;99.90;;;;;;5075010;28;20023;-74
2021/06/27 04:47:51;;;;;;;51.55;36.50;;;18.50;99.90;;;;;;5074339;28;20108;-72
2021/06/27 04:50:17;;;;;;;52.17;38.30;;;18.60;99.90;;;;;;5074551;28;20115;-73
2021/06/27 04:52:42;;;;;;;44.72;35.58;;;18.60;99.90;;;;;;5074832;28;20507;-74
2021/06/27 04:55:08;;;;;;;53.72;39.03;;;18.70;99.90;;;;;;5073975;28;20078;-74
2021/06/27 04:57:35;;;;;;;55.03;38.58;;;18.70;99.90;;;;;;5074722;28;20411;-74
2021/06/27 05:00:03;;;;;;;50.95;37.97;;;18.80;99.90;;;;;;5074429;28;20024;-74
2021/06/27 05:02:28;;;;;;;49.85;36.83;;;18.70;99.90;;;;;;5073865;28;20408;-74
2021/06/27 05:04:54;;;;;;;50.13;37.78;;;18.70;99.90;;;;;;5074704;28;20024;-73
2021/06/27 05:07:19;;;;;;;50.67;37.55;;;18.80;99.90;;;;;;5074238;28;20160;-74
2021/06/27 05:09:45;;;;;;;50.33;37.20;;;18.80;99.90;;;;;;5074045;28;20019;-74
2021/06/27 05:12:11;;;;;;;49.72;37.13;;;18.80;99.90;;;;;;5082482;28;20016;-74
2021/06/27 05:14:36;;;;;;;54.47;37.63;;;18.80;99.90;;;;;;5080314;28;20070;-73
2021/06/27 05:17:02;;;;;;;48.97;36.70;;;18.80;99.90;;;;;;5073401;28;20036;-73
2021/06/27 05:19:27;;;;;;;50.17;37.80;;;18.80;99.90;;;;;;5073915;28;20017;-73
2021/06/27 05:21:53;;;;;;;50.42;37.10;;;18.80;99.90;;;;;;5073489;28;20067;-74
2021/06/27 05:24:19;;;;;;;55.03;37.47;;;18.90;99.90;;;;;;5073510;28;20040;-74
2021/06/27 05:26:45;;;;;;;56.42;38.08;;;18.90;99.90;;;;;;5074032;28;20039;-74
2021/06/27 05:29:11;;;;;;;49.90;36.60;;;18.90;99.90;;;;;;5073847;28;20107;-73
2021/06/27 05:31:37;;;;;;;47.75;36.58;;;18.90;99.90;;;;;;5073307;28;20111;-73
2021/06/27 05:34:03;;;;;;;47.33;36.45;;;19.00;99.90;;;;;;5073814;28;20028;-74
2021/06/27 05:36:29;;;;;;;50.40;36.42;;;19.00;99.90;;;;;;5073728;28;20049;-72
2021/06/27 05:38:55;;;;;;;47.30;36.05;;;19.10;99.90;;;;;;5073174;28;20074;-74
2021/06/27 05:41:21;;;;;;;50.38;36.08;;;19.20;99.90;;;;;;5073861;28;20393;-73
2021/06/27 05:43:46;;;;;;;43.88;35.58;;;19.20;99.90;;;;;;5073822;28;20040;-74
2021/06/27 05:46:12;;;;;;;47.53;36.17;;;19.30;99.90;;;;;;5072905;28;20458;-73
2021/06/27 05:48:38;;;;;;;46.72;35.47;;;19.30;99.90;;;;;;5073543;28;20028;-73
2021/06/27 05:51:03;;;;;;;47.28;36.22;;;19.30;99.90;;;;;;5082123;28;20032;-73
2021/06/27 05:53:29;;;;;;;46.17;33.83;;;19.40;99.90;;;;;;5075934;28;20052;-74
2021/06/27 05:56:10;;;;;;;44.90;35.45;;;19.40;99.90;;;;;;5080389;28;20020;-73
2021/06/27 05:58:40;;;;;;;46.33;33.45;;;19.50;99.90;;;;;;5075013;28;20077;-73
2021/06/27 06:01:07;;;;;;;43.03;34.28;;;19.50;99.90;;;;;;5076084;28;20128;-73
2021/06/27 06:03:33;;;;;;;45.47;33.83;;;19.60;99.90;;;;;;5075302;28;20041;-73
2021/06/27 06:05:59;;;;;;;43.08;32.10;;;19.70;99.90;;;;;;5076344;28;20020;-73
2021/06/27 06:08:25;;;;;;;45.78;33.25;;;19.70;99.90;;;;;;5075257;28;20028;-74
2021/06/27 06:10:51;;;;;;;42.35;32.88;;;19.70;99.90;;;;;;5077054;28;20031;-73
2021/06/27 06:13:16;;;;;;;41.83;31.30;;;19.70;99.90;;;;;;5089699;28;20044;-73
2021/06/27 06:15:42;;;;;;;45.00;32.65;;;19.80;99.90;;;;;;5093339;28;20523;-73
2021/06/27 06:18:08;;;;;;;41.80;32.00;;;19.80;99.90;;;;;;5077813;28;20439;-73
2021/06/27 06:20:33;;;;;;;41.60;32.42;;;19.80;99.90;;;;;;5075127;28;20021;-73
2021/06/27 06:22:59;;;;;;;42.47;33.50;;;19.80;99.90;;;;;;5087074;28;20457;-73
2021/06/27 06:25:24;;;;;;;42.42;31.58;;;19.90;99.90;;;;;;5073096;28;20329;-73
2021/06/27 06:27:50;;;;;;;39.75;30.13;;;19.90;99.90;;;;;;5072123;28;20020;-73
2021/06/27 06:30:16;;;;;;;37.75;29.23;;;20.00;99.90;;;;;;5071854;28;20034;-73
2021/06/27 06:32:41;;;;;;;43.30;31.65;;;20.00;99.90;;;;;;5072570;28;20104;-73
2021/06/27 06:35:08;;;;;;;38.80;29.58;;;20.10;99.90;;;;;;5071320;28;20024;-74
2021/06/27 06:37:33;;;;;;;36.70;29.50;;;20.10;99.90;;;;;;5072800;28;20044;-74
2021/06/27 06:39:59;;;;;;;39.22;29.17;;;20.20;99.90;;;;;;5072240;28;20020;-73
2021/06/27 06:42:24;;;;;;;38.22;29.45;;;20.30;99.90;;;;;;5086196;28;20027;-74
2021/06/27 06:44:50;;;;;;;38.75;30.10;;;20.40;99.90;;;;;;5071542;28;20099;-72
2021/06/27 06:47:18;;;;;;;38.10;29.17;;;20.50;99.90;;;;;;5098104;28;20112;-73
2021/06/27 06:49:44;;;;;;;34.15;27.40;;;20.60;99.90;;;;;;5072260;28;20031;-73
2021/06/27 06:52:09;;;;;;;35.33;29.42;;;20.70;99.90;;;;;;5071915;28;20388;-73
2021/06/27 06:54:35;;;;;;;36.20;28.27;;;20.80;99.90;;;;;;5071820;28;20052;-73
2021/06/27 06:57:00;;;;;;;41.45;29.52;;;20.90;99.90;;;;;;5071962;28;20071;-72
2021/06/27 06:59:26;;;;;;;37.25;28.92;;;21.00;99.90;;;;;;5072054;28;20028;-72
2021/06/27 07:01:51;;;;;;;33.58;27.63;;;20.90;99.90;;;;;;5071604;28;20024;-73
2021/06/27 07:04:17;;;;;;;34.03;28.25;;;21.00;99.90;;;;;;5072017;28;20107;-73
2021/06/27 07:06:43;;;;;;;32.22;26.70;;;21.00;99.90;;;;;;5072276;28;20529;-72
2021/06/27 07:09:09;;;;;;;34.97;27.67;;;21.00;99.90;;;;;;5086386;28;20031;-74
2021/06/27 07:11:35;;;;;;;36.08;28.20;;;21.00;99.90;;;;;;5089112;28;20443;-73
2021/06/27 07:14:01;;;;;;;36.83;28.27;;;21.10;99.90;;;;;;5071760;28;20056;-74
2021/06/27 07:16:27;;;;;;;30.52;26.15;;;21.10;99.90;;;;;;5071189;28;20032;-73
2021/06/27 07:18:53;;;;;;;35.47;28.67;;;21.20;99.90;;;;;;5072242;28;20017;-72
2021/06/27 07:21:18;;;;;;;35.95;29.35;;;21.30;99.90;;;;;;5071135;28;20028;-73
2021/06/27 07:23:44;;;;;;;36.30;28.38;;;21.30;99.90;;;;;;5070979;28;20059;-73
2021/06/27 07:26:10;;;;;;;33.80;26.70;;;21.40;99.90;;;;;;5071190;28;20024;-74
2021/06/27 07:28:35;;;;;;;35.65;26.98;;;21.40;99.90;;;;;;5072092;28;20024;-74
2021/06/27 07:31:01;;;;;;;35.83;27.25;;;21.40;99.90;;;;;;5081626;28;20031;-73
2021/06/27 07:33:27;;;;;;;33.15;27.05;;;21.50;99.90;;;;;;5075109;28;20039;-73
2021/06/27 07:35:52;;;;;;;33.33;24.95;;;21.60;99.90;;;;;;5081068;28;20082;-72
2021/06/27 07:38:18;;;;;;;27.05;23.55;;;21.60;99.90;;;;;;5086312;28;20184;-72
2021/06/27 07:40:43;;;;;;;29.63;24.65;;;21.70;99.90;;;;;;5068475;28;20016;-74
2021/06/27 07:43:09;;;;;;;34.22;26.30;;;21.70;99.90;;;;;;5090195;28;20044;-72
2021/06/27 07:45:35;;;;;;;29.20;24.83;;;21.70;99.90;;;;;;5078837;28;20077;-73
2021/06/27 07:48:01;;;;;;;25.90;23.13;;;21.70;99.90;;;;;;5074918;28;20024;-74
2021/06/27 07:50:26;;;;;;;29.63;24.67;;;21.80;99.90;;;;;;5075750;28;20020;-74
2021/06/27 07:52:52;;;;;;;31.30;26.92;;;21.80;99.90;;;;;;5072563;28;20082;-73
2021/06/27 07:55:17;;;;;;;25.92;23.20;;;21.80;99.90;;;;;;5075408;28;20086;-73
2021/06/27 07:57:43;;;;;;;32.35;24.88;;;21.90;99.90;;;;;;5074077;28;20039;-74
2021/06/27 08:00:10;;;;;;;32.80;25.00;;;22.00;99.90;;;;;;5073861;28;20024;-73
2021/06/27 08:02:37;;;;;;;25.30;22.13;;;22.00;99.90;;;;;;5076201;28;20027;-73
2021/06/27 08:05:03;;;;;;;28.98;24.27;;;22.10;99.90;;;;;;5073246;28;20394;-73
2021/06/27 08:07:29;;;;;;;26.83;23.20;;;22.20;99.90;;;;;;5076609;28;20034;-73
2021/06/27 08:09:54;;;;;;;26.00;22.67;;;22.30;99.90;;;;;;5074117;28;20115;-72
2021/06/27 08:12:23;;;;;;;26.40;22.33;;;22.30;99.90;;;;;;5082295;28;20051;-73
2021/06/27 08:14:48;;;;;;;27.63;23.27;;;22.40;99.90;;;;;;5075329;28;20322;-72
2021/06/27 08:17:17;;;;;;;27.23;24.33;;;22.50;99.90;;;;;;5071046;28;20032;-72
2021/06/27 08:19:46;;;;;;;24.35;21.73;;;22.60;99.90;;;;;;5070536;28;20108;-72
2021/06/27 08:22:11;;;;;;;31.88;23.58;;;22.70;99.90;;;;;;5071155;28;20029;-73
2021/06/27 08:24:37;;;;;;;33.47;23.55;;;22.80;99.90;;;;;;5071391;28;20422;-72
2021/06/27 08:27:03;;;;;;;26.65;23.70;;;22.90;99.90;;;;;;5070341;28;20028;-72
2021/06/27 08:29:28;;;;;;;27.65;23.25;;;22.90;99.90;;;;;;5071167;28;20028;-72
2021/06/27 08:31:54;;;;;;;27.25;23.35;;;22.90;99.90;;;;;;5070935;28;20046;-74
2021/06/27 08:34:19;;;;;;;27.85;21.85;;;23.00;99.90;;;;;;5070167;28;20024;-72
2021/06/27 08:36:45;;;;;;;25.02;22.35;;;23.00;99.90;;;;;;5070788;28;20044;-71
2021/06/27 08:39:10;;;;;;;25.90;22.13;;;23.20;99.90;;;;;;5070898;28;20042;-71
2021/06/27 08:41:36;;;;;;;27.33;22.77;;;23.30;99.90;;;;;;5074194;28;20028;-71
2021/06/27 08:44:04;;;;;;;25.52;22.50;;;23.30;99.90;;;;;;5071021;28;20133;-69
2021/06/27 08:46:34;;;;;;;27.13;23.55;;;23.30;99.90;;;;;;5081812;28;20024;-72
2021/06/27 08:49:00;;;;;;;32.97;23.73;;;23.30;99.90;;;;;;5090264;28;20023;-71
2021/06/27 08:51:26;;;;;;;42.40;25.23;;;23.30;99.90;;;;;;5091516;28;20114;-71
2021/06/27 08:53:52;;;;;;;29.20;21.77;;;23.20;99.90;;;;;;5090599;28;20036;-71
2021/06/27 08:56:18;;;;;;;29.63;22.70;;;23.30;99.90;;;;;;5092835;28;20036;-71
2021/06/27 08:58:46;;;;;;;29.52;22.55;;;23.30;99.90;;;;;;5078737;28;20024;-73
2021/06/27 09:01:21;;;;;;;36.15;24.42;;;23.30;99.90;;;;;;5101781;28;20559;-71
2021/06/27 09:03:47;;;;;;;29.55;21.90;;;23.40;99.90;;;;;;5110732;28;20019;-72
2021/06/27 09:06:32;;;;;;;32.60;21.88;;;23.40;99.90;;;;;;5110759;28;20130;-72
2021/06/27 09:09:16;;;;;;;24.85;22.15;;;23.40;99.90;;;;;;5108967;28;20031;-71
2021/06/27 09:11:58;;;;;;;26.52;20.63;;;23.30;99.90;;;;;;5104093;28;20027;-71
2021/06/27 09:14:41;;;;;;;24.52;20.55;;;23.40;99.90;;;;;;5106055;28;20475;-70
2021/06/27 09:17:23;;;;;;;23.58;20.52;;;23.30;99.90;;;;;;5107711;28;20028;-71
2021/06/27 09:19:51;;;;;;;23.90;20.27;;;23.40;99.90;;;;;;5099086;28;20158;-70
2021/06/27 09:22:18;;;;;;;21.98;19.67;;;23.40;99.90;;;;;;5089362;28;20118;-71
2021/06/27 09:24:45;;;;;;;22.60;18.88;;;23.50;99.90;;;;;;5091236;28;20435;-70
2021/06/27 09:27:29;;;;;;;22.95;20.48;;;23.60;99.90;;;;;;5098885;28;20033;-71
2021/06/27 09:29:55;;;;;;;20.10;17.42;;;23.70;99.90;;;;;;5099750;28;20040;-71
2021/06/27 09:32:23;;;;;;;21.67;19.55;;;23.80;99.90;;;;;;5110296;28;20066;-71
2021/06/27 09:34:50;;;;;;;23.42;19.73;;;23.80;99.90;;;;;;5109405;28;20024;-71
2021/06/27 09:37:25;;;;;;;22.38;18.77;;;23.80;99.90;;;;;;5101591;28;20051;-70
2021/06/27 09:39:57;;;;;;;20.58;17.90;;;23.80;99.90;;;;;;5112528;28;20034;-71
2021/06/27 09:42:23;;;;;;;19.35;17.48;;;23.70;99.90;;;;;;5108211;28;20027;-72
2021/06/27 09:45:07;;;;;;;19.95;17.48;;;23.80;99.90;;;;;;5108312;28;20376;-71
2021/06/27 09:47:33;;;;;;;18.25;16.30;;;23.80;99.90;;;;;;5099006;28;20047;-72
2021/06/27 09:50:00;;;;;;;15.68;14.07;;;23.90;99.90;;;;;;5099174;28;20422;-72
2021/06/27 09:52:39;;;;;;;16.80;15.30;;;24.00;99.90;;;;;;5088833;28;20032;-71
2021/06/27 09:55:10;;;;;;;16.75;15.13;;;24.10;99.90;;;;;;5091946;28;20502;-71
2021/06/27 09:57:36;;;;;;;16.20;14.60;;;24.20;99.90;;;;;;5098265;28;20032;-72
2021/06/27 10:00:23;;;;;;;17.58;15.88;;;24.40;99.90;;;;;;5109244;28;20028;-72
2021/06/27 10:03:05;;;;;;;16.70;14.90;;;24.50;99.90;;;;;;5106193;28;20200;-72
2021/06/27 10:05:33;;;;;;;15.15;13.75;;;24.60;99.90;;;;;;5103355;28;20036;-72
2021/06/27 10:07:59;;;;;;;16.13;14.38;;;24.70;99.90;;;;;;5105622;28;20028;-71
2021/06/27 10:10:25;;;;;;;15.82;14.38;;;24.80;99.90;;;;;;5104297;28;20054;-71
2021/06/27 10:12:51;;;;;;;14.50;13.10;;;24.90;99.90;;;;;;5104091;28;20031;-71
2021/06/27 10:15:17;;;;;;;15.73;13.10;;;25.00;99.90;;;;;;5108099;28;20019;-71
2021/06/27 10:17:44;;;;;;;16.67;15.13;;;25.00;99.90;;;;;;5087086;28;20048;-71
2021/06/27 10:20:12;;;;;;;15.32;13.82;;;25.00;99.90;;;;;;5084099;28;20020;-71
2021/06/27 10:22:38;;;;;;;14.48;13.18;;;25.00;99.90;;;;;;5091777;28;20070;-71
2021/06/27 10:25:06;;;;;;;13.63;12.43;;;25.00;99.90;;;;;;5099059;28;20069;-71
2021/06/27 10:27:33;;;;;;;13.85;12.55;;;24.90;99.90;;;;;;5110759;28;20498;-72
2021/06/27 10:30:00;;;;;;;13.65;12.30;;;24.80;99.90;;;;;;5109583;28;20385;-70
2021/06/27 10:32:26;;;;;;;13.50;12.38;;;24.70;99.90;;;;;;5093291;28;20036;-72
2021/06/27 10:34:55;;;;;;;13.20;11.98;;;24.70;99.90;;;;;;5107070;28;20233;-71
2021/06/27 10:37:25;;;;;;;12.32;11.18;;;24.60;99.90;;;;;;5097989;28;20062;-72
2021/06/27 10:40:12;;;;;;;12.07;10.93;;;24.70;99.90;;;;;;5104163;28;20046;-71
2021/06/27 10:42:53;;;;;;;12.18;11.18;;;24.80;99.90;;;;;;5104903;28;20028;-71
2021/06/27 10:45:48;;;;;;;12.45;11.25;;;25.00;99.90;;;;;;5100862;28;20372;-70
2021/06/27 10:48:32;;;;;;;11.98;10.88;;;25.10;99.90;;;;;;5081787;28;20066;-71
2021/06/27 10:51:02;;;;;;;12.20;11.10;;;25.10;99.90;;;;;;5102204;28;20016;-72
2021/06/27 10:53:27;;;;;;;12.23;11.05;;;25.20;99.90;;;;;;5098614;28;20026;-72
2021/06/27 10:55:59;;;;;;;11.35;10.07;;;25.20;99.90;;;;;;5097441;28;20024;-71
2021/06/27 10:58:38;;;;;;;10.77;9.88;;;25.20;99.90;;;;;;5099352;28;20589;-71
2021/06/27 11:01:09;;;;;;;10.52;9.60;;;25.30;99.70;;;;;;5105302;28;20469;-71
2021/06/27 11:03:42;;;;;;;9.10;8.43;;;25.30;99.30;;;;;;5100297;28;20038;-71
2021/06/27 11:06:17;;;;;;;11.85;8.43;;;25.40;99.50;;;;;;5104582;28;20025;-72
2021/06/27 11:08:49;;;;;;;9.32;8.63;;;25.60;99.40;;;;;;5098204;28;20024;-71
2021/06/27 11:11:19;;;;;;;8.80;7.88;;;25.70;98.40;;;;;;5097464;28;20024;-72
2021/06/27 11:14:10;;;;;;;8.65;7.85;;;25.70;98.00;;;;;;5095918;28;20119;-70
2021/06/27 11:16:59;;;;;;;8.60;7.80;;;25.70;97.90;;;;;;5093238;28;20502;-71
2021/06/27 11:19:30;;;;;;;8.52;7.82;;;25.80;98.20;;;;;;5089096;28;20036;-72
2021/06/27 11:22:28;;;;;;;8.35;7.57;;;25.70;97.30;;;;;;5085667;28;20025;-72
2021/06/27 11:24:56;;;;;;;8.45;7.75;;;25.70;97.60;;;;;;5072229;28;20452;-71
2021/06/27 11:27:36;;;;;;;8.77;7.97;;;25.70;97.10;;;;;;5078464;28;20032;-71
2021/06/27 11:30:30;;;;;;;8.00;7.40;;;25.70;97.00;;;;;;5082814;28;20398;-71
2021/06/27 11:33:12;;;;;;;7.95;7.25;;;25.70;96.60;;;;;;5089325;28;20020;-72
2021/06/27 11:35:50;;;;;;;7.70;7.10;;;25.80;97.10;;;;;;5085041;28;20544;-72
2021/06/27 11:38:39;;;;;;;8.25;7.65;;;25.80;96.00;;;;;;5087825;28;20332;-72
2021/06/27 11:41:07;;;;;;;7.72;6.50;;;25.80;96.10;;;;;;5086235;28;20569;-72
2021/06/27 11:43:54;;;;;;;7.57;6.97;;;25.70;96.00;;;;;;5089857;28;20085;-70
2021/06/27 11:46:34;;;;;;;7.90;7.25;;;25.80;95.50;;;;;;5076120;28;20071;-73
2021/06/27 11:49:03;;;;;;;8.40;7.80;;;25.70;95.40;;;;;;5090346;28;20036;-72
2021/06/27 11:51:45;;;;;;;8.10;7.53;;;25.80;95.70;;;;;;5087038;28;20071;-71
2021/06/27 11:54:13;;;;;;;8.00;7.30;;;25.80;95.10;;;;;;5080666;28;20024;-72
2021/06/27 11:56:59;;;;;;;7.63;6.93;;;26.00;95.10;;;;;;5078000;28;20488;-72
2021/06/27 11:59:26;;;;;;;8.10;7.35;;;26.20;94.40;;;;;;5082488;28;20028;-71
2021/06/27 12:02:19;;;;;;;8.20;7.60;;;26.30;93.60;;;;;;5076446;28;20028;-72
2021/06/27 12:04:59;;;;;;;8.20;7.45;;;26.30;93.20;;;;;;5069505;28;20469;-73
2021/06/27 12:07:37;;;;;;;7.35;6.75;;;26.30;93.20;;;;;;5078360;28;20385;-72
2021/06/27 12:10:18;;;;;;;7.35;6.30;;;26.40;93.50;;;;;;5078619;28;20052;-72
2021/06/27 12:12:48;;;;;;;7.07;6.45;;;26.50;92.60;;;;;;5079754;28;20487;-71
2021/06/27 12:15:22;;;;;;;7.18;6.47;;;26.60;92.60;;;;;;5089107;28;20380;-72
2021/06/27 12:18:14;;;;;;;6.68;6.15;;;26.50;91.70;;;;;;5089014;28;20058;-73
2021/06/27 12:20:46;;;;;;;6.45;5.95;;;26.70;91.80;;;;;;5078058;28;20032;-72
2021/06/27 12:23:33;;;;;;;7.10;6.35;;;26.90;91.50;;;;;;5086249;28;20038;-72
2021/06/27 12:26:06;;;;;;;6.63;6.13;;;27.00;91.50;;;;;;5071194;28;20039;-72
2021/06/27 12:28:37;;;;;;;7.05;6.40;;;27.20;91.00;;;;;;5086675;28;20046;-72
2021/06/27 12:31:17;;;;;;;6.47;5.90;;;27.20;90.40;;;;;;5091355;28;20122;-73
2021/06/27 12:33:45;;;;;;;6.90;6.40;;;27.20;91.00;;;;;;5087998;28;20032;-73
2021/06/27 12:36:15;;;;;;;6.55;6.00;;;27.30;90.00;;;;;;5093533;28;20046;-72